Time;durP1;ratioP1;P1;durP2;ratioP2;P2;SDS_P1;SDS_P2;PMS_P1;PMS_P2;Temp;Humidity;BMP_temperature;BMP_pressure;BME280_temperature;BME280_humidity;BME280_pressure;Samples;Min_cycle;Max_cycle;Signal;HPM_P1;HPM_P2
2023/07/23 00:01:13;;;;;;;13.57;7.75;;;14.70;99.90;;;;;;5112233;28;20074;-76
2023/07/23 00:03:38;;;;;;;14.32;8.10;;;14.60;99.90;;;;;;5110268;28;20058;-77
2023/07/23 00:06:04;;;;;;;15.95;7.43;;;14.60;99.90;;;;;;5114671;28;20416;-77
2023/07/23 00:08:30;;;;;;;15.15;8.27;;;14.60;99.90;;;;;;5109485;28;20043;-77
2023/07/23 00:10:57;;;;;;;17.90;8.25;;;14.60;99.90;;;;;;5113955;28;20386;-76
2023/07/23 00:13:23;;;;;;;16.27;8.10;;;14.60;99.90;;;;;;5116028;28;20063;-76
2023/07/23 00:15:48;;;;;;;15.95;8.23;;;14.60;99.90;;;;;;5112136;28;20393;-77
2023/07/23 00:18:14;;;;;;;18.77;8.73;;;14.60;99.90;;;;;;5115677;27;20047;-77
2023/07/23 00:20:40;;;;;;;15.68;8.18;;;14.50;99.90;;;;;;5111243;28;20044;-77
2023/07/23 00:23:05;;;;;;;13.68;7.55;;;14.60;99.90;;;;;;5112086;28;20379;-77
2023/07/23 00:25:31;;;;;;;14.35;7.50;;;14.60;99.90;;;;;;5112107;28;20035;-78
2023/07/23 00:27:57;;;;;;;12.77;7.85;;;14.60;99.90;;;;;;5111293;28;20039;-77
2023/07/23 00:30:22;;;;;;;14.32;7.40;;;14.60;99.90;;;;;;5105537;28;20420;-77
2023/07/23 00:32:48;;;;;;;20.05;8.45;;;14.60;99.90;;;;;;5111549;28;20127;-76
2023/07/23 00:35:14;;;;;;;13.35;7.80;;;14.70;99.90;;;;;;5115480;28;20384;-76
2023/07/23 00:37:40;;;;;;;15.38;7.55;;;14.50;99.90;;;;;;5106561;27;20048;-77
2023/07/23 00:40:06;;;;;;;13.57;7.20;;;14.80;99.90;;;;;;5111608;28;20482;-77
2023/07/23 00:42:32;;;;;;;13.68;7.35;;;14.50;99.90;;;;;;5111591;28;20085;-76
2023/07/23 00:44:58;;;;;;;10.48;7.43;;;14.50;99.90;;;;;;5116677;28;20501;-76
2023/07/23 00:47:24;;;;;;;13.50;7.80;;;14.50;99.90;;;;;;5112123;28;20127;-77
2023/07/23 00:49:50;;;;;;;13.48;7.90;;;14.50;99.90;;;;;;5110295;28;20035;-76
2023/07/23 00:52:16;;;;;;;15.52;7.88;;;14.40;99.90;;;;;;5093699;28;20044;-77
2023/07/23 00:54:42;;;;;;;14.65;8.02;;;14.40;99.90;;;;;;5112035;28;20032;-77
2023/07/23 00:57:10;;;;;;;13.45;7.90;;;14.40;99.90;;;;;;5114505;28;20036;-77
2023/07/23 00:59:37;;;;;;;;;;;14.40;99.90;;;;;;5117984;28;20071;-77
2023/07/23 01:02:03;;;;;;;14.43;8.80;;;14.40;99.90;;;;;;5108320;28;19920;-77
2023/07/23 01:04:29;;;;;;;15.82;8.50;;;14.40;99.90;;;;;;5114684;28;20059;-76
2023/07/23 01:06:56;;;;;;;15.07;8.52;;;14.40;99.90;;;;;;5115033;27;20039;-77
2023/07/23 01:09:23;;;;;;;16.93;9.37;;;14.40;99.90;;;;;;5114819;28;20093;-77
2023/07/23 01:11:50;;;;;;;16.17;8.20;;;14.40;99.90;;;;;;5112642;28;20032;-77
2023/07/23 01:14:19;;;;;;;15.75;8.65;;;14.40;99.90;;;;;;5109250;28;20089;-77
2023/07/23 01:16:45;;;;;;;17.90;8.82;;;14.40;99.90;;;;;;5124025;27;20039;-75
2023/07/23 01:19:12;;;;;;;16.00;8.77;;;14.30;99.90;;;;;;5108387;28;20191;-76
2023/07/23 01:21:38;;;;;;;13.18;7.95;;;14.40;99.90;;;;;;5112725;27;20125;-77
2023/07/23 01:24:04;;;;;;;14.88;8.23;;;14.40;99.90;;;;;;5107225;28;20035;-77
2023/07/23 01:26:30;;;;;;;18.33;9.57;;;14.40;99.90;;;;;;5114191;28;20093;-76
2023/07/23 01:28:55;;;;;;;14.13;8.75;;;14.30;99.90;;;;;;5109320;28;20040;-77
2023/07/23 01:31:21;;;;;;;17.30;8.80;;;14.30;99.90;;;;;;5111208;28;20101;-77
2023/07/23 01:33:47;;;;;;;14.60;8.95;;;14.30;99.90;;;;;;5109258;28;20461;-78
2023/07/23 01:36:14;;;;;;;12.55;8.52;;;14.30;99.90;;;;;;5111060;28;20050;-76
2023/07/23 01:38:40;;;;;;;16.10;8.45;;;14.30;99.90;;;;;;5108404;28;20036;-77
2023/07/23 01:41:06;;;;;;;17.15;9.18;;;14.30;99.90;;;;;;5104516;28;20040;-77
2023/07/23 01:43:32;;;;;;;14.43;8.30;;;14.40;99.90;;;;;;5090196;28;20050;-78
2023/07/23 01:45:57;;;;;;;14.25;8.05;;;14.40;99.90;;;;;;5109496;28;20042;-78
2023/07/23 01:48:23;;;;;;;14.55;7.80;;;14.40;99.90;;;;;;5107655;28;20039;-77
2023/07/23 01:50:49;;;;;;;14.15;8.20;;;14.40;99.90;;;;;;5109447;28;20220;-77
2023/07/23 01:53:15;;;;;;;15.10;7.47;;;14.30;99.90;;;;;;5085437;28;20043;-76
2023/07/23 01:55:41;;;;;;;13.43;7.00;;;14.40;99.90;;;;;;5110346;28;20054;-77
2023/07/23 01:58:07;;;;;;;12.38;7.60;;;14.40;99.90;;;;;;5084104;28;20572;-78
2023/07/23 02:00:32;;;;;;;16.60;7.55;;;14.40;99.90;;;;;;5113053;28;20043;-76
2023/07/23 02:02:58;;;;;;;13.55;7.63;;;14.40;99.90;;;;;;5112274;28;20035;-76
2023/07/23 02:05:24;;;;;;;11.73;7.43;;;14.40;99.90;;;;;;5115136;28;20040;-78
2023/07/23 02:07:52;;;;;;;12.23;7.32;;;14.40;99.90;;;;;;5112959;28;20050;-76
2023/07/23 02:10:20;;;;;;;12.02;6.82;;;14.40;99.90;;;;;;5092543;28;20386;-77
2023/07/23 02:12:45;;;;;;;;;;;14.40;99.90;;;;;;5108406;28;20461;-77
2023/07/23 02:15:11;;;;;;;12.15;6.72;;;14.70;99.90;;;;;;5108182;28;19965;-77
2023/07/23 02:17:37;;;;;;;11.68;7.63;;;14.40;99.90;;;;;;5110240;28;20072;-77
2023/07/23 02:20:04;;;;;;;11.73;7.07;;;14.40;99.90;;;;;;5090767;28;20473;-76
2023/07/23 02:22:30;;;;;;;12.93;6.65;;;14.40;99.90;;;;;;5107528;28;20051;-77
2023/07/23 02:24:55;;;;;;;11.13;6.50;;;14.40;99.90;;;;;;5108330;28;20040;-77
2023/07/23 02:27:21;;;;;;;13.75;6.97;;;14.70;99.90;;;;;;5112026;28;20443;-78
2023/07/23 02:29:47;;;;;;;13.82;7.15;;;14.40;99.90;;;;;;5111179;28;20108;-75
2023/07/23 02:32:13;;;;;;;10.75;6.63;;;14.40;99.90;;;;;;5111401;28;20618;-77
2023/07/23 02:34:38;;;;;;;13.23;6.97;;;14.40;99.90;;;;;;5112311;28;20040;-76
2023/07/23 02:37:04;;;;;;;11.73;6.93;;;14.40;99.90;;;;;;5111031;28;20039;-77
2023/07/23 02:39:32;;;;;;;13.45;7.53;;;14.40;99.90;;;;;;5110432;28;20062;-78
2023/07/23 02:41:58;;;;;;;12.32;7.03;;;14.40;99.90;;;;;;5109104;28;20036;-77
2023/07/23 02:44:24;;;;;;;13.65;7.72;;;14.30;99.90;;;;;;5110213;28;20031;-78
2023/07/23 02:46:49;;;;;;;15.75;7.43;;;14.40;99.90;;;;;;5108939;28;20031;-77
2023/07/23 02:49:15;;;;;;;13.25;7.20;;;14.40;99.90;;;;;;5107164;28;20039;-77
2023/07/23 02:51:41;;;;;;;12.70;7.50;;;14.50;99.90;;;;;;5115272;28;20470;-77
2023/07/23 02:54:08;;;;;;;12.63;7.50;;;14.40;99.90;;;;;;5113474;28;20093;-77
2023/07/23 02:56:34;;;;;;;13.80;8.48;;;14.40;99.90;;;;;;5111851;28;20043;-77
2023/07/23 02:59:01;;;;;;;13.65;8.23;;;14.40;99.90;;;;;;5111011;28;20036;-76
2023/07/23 03:01:27;;;;;;;12.40;7.10;;;14.30;99.90;;;;;;5102060;28;20476;-77
2023/07/23 03:03:52;;;;;;;15.25;7.60;;;14.40;99.90;;;;;;5112116;28;20063;-78
2023/07/23 03:06:18;;;;;;;14.55;7.32;;;14.40;99.90;;;;;;5111957;28;20127;-77
2023/07/23 03:08:44;;;;;;;14.45;7.57;;;14.40;99.90;;;;;;5111679;28;20123;-76
2023/07/23 03:11:09;;;;;;;13.45;7.88;;;14.40;99.90;;;;;;5111451;28;20040;-79
2023/07/23 03:13:35;;;;;;;13.30;7.25;;;14.30;99.90;;;;;;5106934;28;20048;-77
2023/07/23 03:16:01;;;;;;;13.35;7.72;;;14.40;99.90;;;;;;5108151;28;20056;-77
2023/07/23 03:18:28;;;;;;;13.20;7.65;;;14.40;99.90;;;;;;5106219;28;20040;-77
2023/07/23 03:20:54;;;;;;;13.13;7.65;;;14.30;99.90;;;;;;5110186;28;20036;-77
2023/07/23 03:23:20;;;;;;;14.18;7.70;;;14.30;99.90;;;;;;5109011;28;20382;-77
2023/07/23 03:25:45;;;;;;;18.90;7.75;;;14.30;99.90;;;;;;5112879;28;20046;-79
2023/07/23 03:28:11;;;;;;;15.77;7.47;;;14.40;99.90;;;;;;5115527;28;20040;-79
2023/07/23 03:30:37;;;;;;;12.05;7.82;;;14.40;99.90;;;;;;5111143;28;20093;-77
2023/07/23 03:33:03;;;;;;;11.07;6.97;;;14.40;99.90;;;;;;5098783;28;20039;-78
2023/07/23 03:35:29;;;;;;;16.52;8.05;;;14.30;99.90;;;;;;5116105;28;20035;-78
2023/07/23 03:37:57;;;;;;;14.02;7.85;;;14.90;99.90;;;;;;5109144;28;20698;-79
2023/07/23 03:40:23;;;;;;;13.43;8.02;;;14.80;99.90;;;;;;5110602;28;20040;-77
2023/07/23 03:42:49;;;;;;;16.90;8.45;;;14.40;99.90;;;;;;5098445;28;20031;-77
2023/07/23 03:45:14;;;;;;;17.30;8.80;;;14.40;99.90;;;;;;5118928;28;20040;-77
2023/07/23 03:47:40;;;;;;;16.52;8.00;;;14.40;99.90;;;;;;5118749;28;20084;-76
2023/07/23 03:50:06;;;;;;;16.20;8.38;;;14.40;99.90;;;;;;5106742;28;20122;-77
2023/07/23 03:52:32;;;;;;;14.63;8.73;;;14.40;99.90;;;;;;5116001;28;20035;-77
2023/07/23 03:54:57;;;;;;;18.48;9.65;;;14.30;99.90;;;;;;5111088;28;20047;-78
2023/07/23 03:57:23;;;;;;;18.20;9.10;;;14.40;99.90;;;;;;5107066;28;20130;-76
2023/07/23 03:59:49;;;;;;;19.20;9.60;;;14.40;99.90;;;;;;5111503;28;20040;-77
2023/07/23 04:02:15;;;;;;;14.38;8.95;;;14.40;99.90;;;;;;5114276;28;20043;-76
2023/07/23 04:04:41;;;;;;;18.13;9.50;;;14.40;99.90;;;;;;5114498;28;20043;-78
2023/07/23 04:07:07;;;;;;;18.02;9.48;;;14.40;99.90;;;;;;5110317;28;20043;-77
2023/07/23 04:09:33;;;;;;;16.05;9.13;;;14.40;99.90;;;;;;5116897;28;20359;-77
2023/07/23 04:12:00;;;;;;;12.95;8.77;;;14.40;99.90;;;;;;5112504;28;20032;-76
2023/07/23 04:14:26;;;;;;;19.00;9.27;;;14.40;99.90;;;;;;5115020;28;20070;-77
2023/07/23 04:16:53;;;;;;;15.82;9.35;;;14.40;99.90;;;;;;5111394;28;20043;-77
2023/07/23 04:19:18;;;;;;;15.55;9.60;;;14.40;99.90;;;;;;5111138;28;20050;-76
2023/07/23 04:21:44;;;;;;;18.38;8.93;;;14.40;99.90;;;;;;5110382;28;20056;-77
2023/07/23 04:24:10;;;;;;;17.80;9.02;;;14.40;99.90;;;;;;5111183;28;20062;-78
2023/07/23 04:26:36;;;;;;;18.58;9.15;;;14.40;99.90;;;;;;5113276;27;20090;-77
2023/07/23 04:29:01;;;;;;;17.17;9.25;;;14.40;99.90;;;;;;5113404;28;20047;-78
2023/07/23 04:31:27;;;;;;;14.25;9.50;;;14.40;99.90;;;;;;5113750;28;20366;-76
2023/07/23 04:33:55;;;;;;;19.90;9.77;;;14.40;99.90;;;;;;5113131;28;20031;-77
2023/07/23 04:36:21;;;;;;;18.15;8.52;;;14.40;99.90;;;;;;5112598;28;20047;-78
2023/07/23 04:38:47;;;;;;;16.83;8.88;;;14.40;99.90;;;;;;5089608;28;20508;-78
2023/07/23 04:41:13;;;;;;;15.48;8.82;;;14.40;99.90;;;;;;5110981;28;20134;-78
2023/07/23 04:43:41;;;;;;;19.38;9.63;;;14.40;99.90;;;;;;5112214;28;20077;-77
2023/07/23 04:46:07;;;;;;;16.48;9.63;;;14.40;99.90;;;;;;5112835;28;20039;-77
2023/07/23 04:48:34;;;;;;;15.38;8.57;;;14.40;99.90;;;;;;5113879;28;20052;-78
2023/07/23 04:51:04;;;;;;;14.80;8.77;;;14.40;99.90;;;;;;5107805;28;20389;-77
2023/07/23 04:53:30;;;;;;;22.10;9.38;;;14.40;99.90;;;;;;5107642;27;21599;-78
2023/07/23 04:55:57;;;;;;;16.38;9.02;;;14.50;99.90;;;;;;5105732;28;20039;-78
2023/07/23 04:58:24;;;;;;;28.45;9.40;;;14.50;99.90;;;;;;5112497;28;20050;-77
2023/07/23 05:00:51;;;;;;;23.20;8.68;;;14.50;99.90;;;;;;5106657;28;20040;-76
2023/07/23 05:03:20;;;;;;;17.88;8.70;;;14.50;99.90;;;;;;5112928;28;20489;-76
2023/07/23 05:05:50;;;;;;;17.10;9.05;;;14.50;99.90;;;;;;5107467;28;20036;-78
2023/07/23 05:08:19;;;;;;;21.05;10.00;;;14.50;99.90;;;;;;5107682;28;20039;-76
2023/07/23 05:10:48;;;;;;;16.75;9.18;;;14.50;99.90;;;;;;5102027;28;20075;-76
2023/07/23 05:13:14;;;;;;;14.93;8.57;;;14.50;99.90;;;;;;5112849;28;20045;-77
2023/07/23 05:15:40;;;;;;;19.15;9.73;;;14.50;99.90;;;;;;5106024;28;20495;-76
2023/07/23 05:18:06;;;;;;;14.65;9.15;;;14.50;99.90;;;;;;5114586;28;20046;-79
2023/07/23 05:20:32;;;;;;;16.05;9.75;;;14.50;99.90;;;;;;5114403;28;20047;-75
2023/07/23 05:22:57;;;;;;;18.48;9.32;;;14.50;99.90;;;;;;5111809;28;20070;-78
2023/07/23 05:25:23;;;;;;;21.48;9.60;;;14.50;99.90;;;;;;5109585;28;20466;-77
2023/07/23 05:27:49;;;;;;;17.40;9.57;;;14.50;99.90;;;;;;5112898;28;20063;-76
2023/07/23 05:30:16;;;;;;;17.48;9.85;;;14.50;99.90;;;;;;5109508;28;20126;-77
2023/07/23 05:32:42;;;;;;;17.15;9.48;;;14.50;99.90;;;;;;5111915;28;20050;-76
2023/07/23 05:35:08;;;;;;;18.92;10.32;;;14.50;99.90;;;;;;5116571;27;20168;-77
2023/07/23 05:37:33;;;;;;;17.40;10.43;;;14.50;99.90;;;;;;5109496;28;20075;-77
2023/07/23 05:39:59;;;;;;;21.35;11.25;;;14.50;99.90;;;;;;5112153;28;20466;-77
2023/07/23 05:42:25;;;;;;;22.52;11.55;;;14.60;99.90;;;;;;5108033;28;20046;-77
2023/07/23 05:44:50;;;;;;;19.60;11.35;;;14.60;99.90;;;;;;5105839;28;20031;-77
2023/07/23 05:47:16;;;;;;;22.40;11.35;;;14.60;99.90;;;;;;5111409;28;20440;-78
2023/07/23 05:49:42;;;;;;;20.10;10.73;;;14.50;99.90;;;;;;5094919;28;20052;-76
2023/07/23 05:52:07;;;;;;;15.35;9.75;;;14.50;99.90;;;;;;5113074;28;20054;-80
2023/07/23 05:54:33;;;;;;;20.98;10.88;;;14.60;99.90;;;;;;5095076;28;20035;-78
2023/07/23 05:56:59;;;;;;;21.08;11.85;;;14.50;99.90;;;;;;5110038;28;20342;-77
2023/07/23 05:59:25;;;;;;;20.38;11.02;;;14.60;99.90;;;;;;5110004;28;20039;-77
2023/07/23 06:01:51;;;;;;;16.17;10.63;;;14.60;99.90;;;;;;5093549;28;20405;-76
2023/07/23 06:04:17;;;;;;;16.20;9.95;;;14.60;99.90;;;;;;5107674;28;20032;-76
2023/07/23 06:06:42;;;;;;;17.35;11.48;;;14.60;99.90;;;;;;5112312;28;20108;-77
2023/07/23 06:09:08;;;;;;;21.70;10.88;;;14.60;99.90;;;;;;5106951;28;20482;-77
2023/07/23 06:11:34;;;;;;;21.65;10.55;;;14.60;99.90;;;;;;5108763;28;20074;-78
2023/07/23 06:14:00;;;;;;;18.40;10.68;;;14.60;99.90;;;;;;5109806;28;20032;-78
2023/07/23 06:16:28;;;;;;;17.90;11.20;;;14.60;99.90;;;;;;5110223;28;20077;-77
2023/07/23 06:18:54;;;;;;;22.95;11.18;;;14.70;99.90;;;;;;5090150;28;20044;-77
2023/07/23 06:21:19;;;;;;;22.35;10.48;;;14.70;99.90;;;;;;5113233;28;20046;-77
2023/07/23 06:23:45;;;;;;;21.08;11.30;;;14.70;99.90;;;;;;5111462;28;20074;-77
2023/07/23 06:26:11;;;;;;;20.30;11.27;;;14.80;99.90;;;;;;5108639;28;20539;-77
2023/07/23 06:28:36;;;;;;;18.50;11.05;;;14.70;99.90;;;;;;5110076;28;20125;-77
2023/07/23 06:31:02;;;;;;;17.88;9.80;;;15.20;99.90;;;;;;5112609;28;20032;-78
2023/07/23 06:33:28;;;;;;;18.75;10.65;;;14.80;99.90;;;;;;5112638;28;20047;-76
2023/07/23 06:35:56;;;;;;;16.98;11.15;;;14.80;99.90;;;;;;5110119;28;20072;-79
2023/07/23 06:38:22;;;;;;;22.08;10.60;;;14.90;99.90;;;;;;5103681;28;20559;-76
2023/07/23 06:40:51;;;;;;;20.83;11.35;;;14.90;99.90;;;;;;5109850;28;20039;-77
2023/07/23 06:43:17;;;;;;;15.32;9.98;;;14.90;99.90;;;;;;5110019;28;20051;-77
2023/07/23 06:45:47;;;;;;;18.50;11.23;;;15.00;99.90;;;;;;5112413;28;20085;-78
2023/07/23 06:48:14;;;;;;;21.00;11.25;;;15.00;99.90;;;;;;5104284;28;20047;-76
2023/07/23 06:50:41;;;;;;;17.10;10.93;;;15.00;99.90;;;;;;5111248;28;20047;-77
2023/07/23 06:53:06;;;;;;;19.13;10.77;;;15.00;99.90;;;;;;5107558;28;20047;-76
2023/07/23 06:55:55;;;;;;;19.75;11.50;;;15.00;99.90;;;;;;5101582;28;20366;-76
2023/07/23 06:58:21;;;;;;;23.67;12.40;;;15.10;99.90;;;;;;5109985;28;20131;-77
2023/07/23 07:00:47;;;;;;;18.25;11.45;;;15.10;99.90;;;;;;5110763;28;20099;-79
2023/07/23 07:03:12;;;;;;;20.40;12.13;;;15.20;99.90;;;;;;5111090;28;20036;-78
2023/07/23 07:05:38;;;;;;;17.73;11.43;;;15.20;99.90;;;;;;5113748;28;20473;-77
2023/07/23 07:08:04;;;;;;;27.00;12.60;;;15.20;99.90;;;;;;5089584;28;20513;-77
2023/07/23 07:10:30;;;;;;;26.17;12.27;;;15.30;99.90;;;;;;5109606;28;20036;-78
2023/07/23 07:12:59;;;;;;;16.40;11.00;;;15.30;99.90;;;;;;5111700;28;20051;-76
2023/07/23 07:15:25;;;;;;;18.35;11.43;;;15.40;99.90;;;;;;5116101;28;20055;-76
2023/07/23 07:17:51;;;;;;;20.85;11.30;;;15.40;99.90;;;;;;5114678;28;20054;-77
2023/07/23 07:20:17;;;;;;;18.70;11.35;;;15.40;99.90;;;;;;5115724;28;20020;-76
2023/07/23 07:22:42;;;;;;;19.60;11.82;;;15.40;99.90;;;;;;5110758;28;20503;-78
2023/07/23 07:25:08;;;;;;;25.70;11.75;;;15.40;99.90;;;;;;5112959;28;20507;-77
2023/07/23 07:27:34;;;;;;;20.77;11.73;;;15.40;99.90;;;;;;5114062;28;20390;-79
2023/07/23 07:29:59;;;;;;;22.67;11.82;;;15.40;99.90;;;;;;5113673;28;20369;-78
2023/07/23 07:32:25;;;;;;;20.33;11.73;;;15.40;99.90;;;;;;5114456;28;20059;-78
2023/07/23 07:34:51;;;;;;;21.00;12.20;;;15.50;99.90;;;;;;5103750;28;20040;-77
2023/07/23 07:37:16;;;;;;;25.77;12.15;;;15.40;99.90;;;;;;5112016;28;20088;-78
2023/07/23 07:39:42;;;;;;;21.10;11.65;;;15.50;99.90;;;;;;5110943;28;20036;-77
2023/07/23 07:42:08;;;;;;;26.05;12.50;;;15.50;99.90;;;;;;5112143;28;20058;-76
2023/07/23 07:44:34;;;;;;;23.38;12.30;;;15.50;99.90;;;;;;5115209;28;20047;-78
2023/07/23 07:46:59;;;;;;;21.73;12.00;;;15.50;99.90;;;;;;5110724;28;20043;-77
2023/07/23 07:49:25;;;;;;;22.13;11.85;;;15.50;99.90;;;;;;5113812;28;20047;-78
2023/07/23 07:51:51;;;;;;;23.35;12.70;;;15.50;99.90;;;;;;5114910;28;20043;-77
2023/07/23 07:54:16;;;;;;;22.80;11.90;;;15.60;99.90;;;;;;5117645;28;20036;-76
2023/07/23 07:56:43;;;;;;;24.23;12.77;;;15.60;99.90;;;;;;5110929;28;20076;-77
2023/07/23 07:59:12;;;;;;;22.73;11.63;;;15.70;99.90;;;;;;5110558;27;20084;-78
2023/07/23 08:01:38;;;;;;;20.63;11.63;;;15.80;99.90;;;;;;5109271;28;20521;-77
2023/07/23 08:04:07;;;;;;;23.55;12.93;;;15.70;99.90;;;;;;5103760;28;20052;-77
2023/07/23 08:06:34;;;;;;;21.73;12.35;;;15.60;99.90;;;;;;5108773;28;20171;-78
2023/07/23 08:09:02;;;;;;;20.55;11.48;;;15.60;99.90;;;;;;5105099;28;20547;-77
2023/07/23 08:11:29;;;;;;;23.70;12.88;;;15.70;99.90;;;;;;5107527;27;20047;-77
2023/07/23 08:13:55;;;;;;;29.00;11.68;;;15.60;99.90;;;;;;5107282;28;20040;-78
2023/07/23 08:16:21;;;;;;;19.55;11.30;;;15.70;99.90;;;;;;5109798;28;20048;-78
2023/07/23 08:18:47;;;;;;;27.38;12.15;;;15.70;99.90;;;;;;5103982;28;20055;-77
2023/07/23 08:21:13;;;;;;;25.17;13.18;;;15.70;99.90;;;;;;5108628;28;20155;-79
2023/07/23 08:23:39;;;;;;;19.95;11.35;;;15.70;99.90;;;;;;5108478;28;20043;-77
2023/07/23 08:26:06;;;;;;;22.80;12.50;;;15.70;99.90;;;;;;5110017;28;20520;-78
2023/07/23 08:28:38;;;;;;;27.17;13.60;;;15.80;99.90;;;;;;5113575;28;20047;-78
2023/07/23 08:31:04;;;;;;;20.02;10.98;;;15.80;99.90;;;;;;5114460;28;20062;-79
2023/07/23 08:33:34;;;;;;;20.50;11.48;;;15.80;99.90;;;;;;5113446;27;20111;-78
2023/07/23 08:36:01;;;;;;;26.52;12.23;;;15.80;99.90;;;;;;5105793;28;20112;-77
2023/07/23 08:38:28;;;;;;;20.45;11.82;;;15.80;99.90;;;;;;5092305;28;20031;-78
2023/07/23 08:41:02;;;;;;;21.25;11.90;;;15.80;99.90;;;;;;5109118;28;20048;-78
2023/07/23 08:43:52;;;;;;;24.80;13.00;;;15.70;99.90;;;;;;5113300;28;20489;-79
2023/07/23 08:46:22;;;;;;;19.95;13.00;;;15.80;99.90;;;;;;5108174;28;20128;-79
2023/07/23 08:48:53;;;;;;;23.33;13.48;;;15.70;99.90;;;;;;5109178;28;20019;-77
2023/07/23 08:51:20;;;;;;;20.35;12.38;;;15.70;99.90;;;;;;5117414;28;20043;-79
2023/07/23 08:53:48;;;;;;;23.58;13.15;;;15.80;99.90;;;;;;5110555;28;20063;-78
2023/07/23 08:56:15;;;;;;;16.45;12.18;;;15.70;99.90;;;;;;5113971;28;20035;-78
2023/07/23 08:58:43;;;;;;;23.48;12.38;;;15.70;99.90;;;;;;5117171;28;20047;-79
2023/07/23 09:01:09;;;;;;;22.48;12.43;;;15.70;99.90;;;;;;5113692;28;20044;-79
2023/07/23 09:03:35;;;;;;;19.70;12.90;;;15.70;99.90;;;;;;5113379;27;20062;-77
2023/07/23 09:06:00;;;;;;;22.73;13.88;;;15.80;99.90;;;;;;5114274;28;20036;-79
2023/07/23 09:08:26;;;;;;;20.10;12.55;;;15.80;99.90;;;;;;5115199;28;20069;-78
2023/07/23 09:10:51;;;;;;;19.30;13.02;;;16.20;99.90;;;;;;5113612;28;20044;-79
2023/07/23 09:13:17;;;;;;;22.75;13.40;;;15.80;99.90;;;;;;5111698;28;20035;-78
2023/07/23 09:15:53;;;;;;;23.27;12.55;;;15.90;99.90;;;;;;5113368;28;20067;-79
2023/07/23 09:18:19;;;;;;;19.08;12.30;;;15.60;99.90;;;;;;5113371;28;20044;-80
2023/07/23 09:20:49;;;;;;;20.98;13.88;;;15.90;99.90;;;;;;5113477;28;20032;-76
2023/07/23 09:23:15;;;;;;;20.83;12.20;;;15.90;99.90;;;;;;5111707;28;20031;-77
2023/07/23 09:25:44;;;;;;;20.83;12.73;;;15.90;99.90;;;;;;5108432;28;20527;-79
2023/07/23 09:28:20;;;;;;;21.50;11.77;;;15.90;99.90;;;;;;5111147;28;20032;-78
2023/07/23 09:30:46;;;;;;;19.42;12.55;;;15.90;99.90;;;;;;5121004;28;20064;-77
2023/07/23 09:33:12;;;;;;;18.05;11.80;;;15.80;99.90;;;;;;5110927;28;20121;-77
2023/07/23 09:35:39;;;;;;;21.92;12.77;;;15.90;99.90;;;;;;5111149;28;20473;-78
2023/07/23 09:38:05;;;;;;;19.48;12.95;;;15.90;99.90;;;;;;5104189;28;20052;-79
2023/07/23 09:40:41;;;;;;;21.20;11.70;;;15.90;99.90;;;;;;5106834;28;20047;-77
2023/07/23 09:43:07;;;;;;;16.73;11.30;;;15.90;99.90;;;;;;5109481;28;20040;-77
2023/07/23 09:45:37;;;;;;;16.80;11.02;;;15.90;99.90;;;;;;5104899;28;20088;-77
2023/07/23 09:48:03;;;;;;;17.02;10.85;;;15.80;99.90;;;;;;5110853;28;20039;-78
2023/07/23 09:50:29;;;;;;;20.75;11.63;;;15.90;99.90;;;;;;5115092;28;20061;-78
2023/07/23 09:52:56;;;;;;;16.23;10.90;;;15.90;99.90;;;;;;5117355;28;20051;-78
2023/07/23 09:55:22;;;;;;;18.02;10.07;;;15.90;99.90;;;;;;5110644;28;20097;-78
2023/07/23 09:57:50;;;;;;;18.77;11.10;;;15.90;99.90;;;;;;5111096;28;20035;-78
2023/07/23 10:00:16;;;;;;;18.52;11.52;;;15.90;99.90;;;;;;5102576;28;20095;-77
2023/07/23 10:02:45;;;;;;;19.80;12.20;;;15.90;99.90;;;;;;5110201;28;20035;-77
2023/07/23 10:05:13;;;;;;;19.73;11.48;;;15.90;99.90;;;;;;5111901;28;20039;-78
2023/07/23 10:07:39;;;;;;;14.25;10.63;;;15.90;99.90;;;;;;5105440;28;20056;-78
2023/07/23 10:10:14;;;;;;;18.85;11.52;;;15.90;99.90;;;;;;5108036;28;20039;-79
2023/07/23 10:12:40;;;;;;;17.17;11.77;;;15.90;99.90;;;;;;5099085;28;20062;-77
2023/07/23 10:15:07;;;;;;;18.48;11.73;;;15.90;99.90;;;;;;5103173;28;20055;-78
2023/07/23 10:17:37;;;;;;;19.55;11.10;;;15.90;99.90;;;;;;5113139;28;20055;-78
2023/07/23 10:20:05;;;;;;;18.80;12.38;;;15.90;99.90;;;;;;5109866;28;20390;-78
2023/07/23 10:22:38;;;;;;;15.50;10.43;;;15.90;99.90;;;;;;5113954;28;20035;-79
2023/07/23 10:25:25;;;;;;;17.27;10.20;;;16.00;99.90;;;;;;5113931;28;20043;-77
2023/07/23 10:27:57;;;;;;;17.92;11.50;;;16.00;99.90;;;;;;5104192;28;20036;-77
2023/07/23 10:30:23;;;;;;;24.25;13.70;;;16.00;99.90;;;;;;5090621;28;20552;-78
2023/07/23 10:33:10;;;;;;;17.60;11.75;;;15.90;99.90;;;;;;5109277;28;20046;-78
2023/07/23 10:36:04;;;;;;;16.67;11.23;;;16.00;99.90;;;;;;5107783;28;20123;-78
2023/07/23 10:38:34;;;;;;;19.08;11.15;;;16.00;99.90;;;;;;5103317;28;20055;-77
2023/07/23 10:41:01;;;;;;;17.80;10.45;;;16.00;99.90;;;;;;5108867;28;20497;-76
2023/07/23 10:43:45;;;;;;;15.30;9.57;;;16.00;99.90;;;;;;5103780;28;20081;-77
2023/07/23 10:46:17;;;;;;;19.23;10.90;;;16.00;99.90;;;;;;5103710;28;20057;-77
2023/07/23 10:48:55;;;;;;;19.00;11.23;;;16.00;99.90;;;;;;5104862;28;20066;-77
2023/07/23 10:51:22;;;;;;;16.95;10.95;;;16.00;99.90;;;;;;5103816;28;20506;-76
2023/07/23 10:53:56;;;;;;;15.93;10.30;;;16.00;99.90;;;;;;5111155;28;20047;-77
2023/07/23 10:56:24;;;;;;;15.07;9.68;;;16.10;99.90;;;;;;5109915;28;20126;-76
2023/07/23 10:58:50;;;;;;;;;;;16.10;99.90;;;;;;5104045;28;20036;-77
2023/07/23 11:01:23;;;;;;;15.38;9.63;;;16.20;99.90;;;;;;5085273;28;19965;-77
2023/07/23 11:03:53;;;;;;;18.65;9.98;;;16.20;99.90;;;;;;5101868;28;20043;-76
2023/07/23 11:06:32;;;;;;;15.05;9.73;;;16.20;99.90;;;;;;5105019;28;20113;-78
2023/07/23 11:09:07;;;;;;;14.38;10.10;;;16.20;99.90;;;;;;5105663;28;20028;-77
2023/07/23 11:11:38;;;;;;;16.80;10.00;;;16.30;99.90;;;;;;5099156;28;20414;-75
2023/07/23 11:14:17;;;;;;;17.75;10.15;;;16.30;99.90;;;;;;5102341;28;20043;-77
2023/07/23 11:16:43;;;;;;;;;;;16.40;99.90;;;;;;5103880;28;20454;-77
2023/07/23 11:19:09;;;;;;;18.15;10.32;;;16.30;99.90;;;;;;5106096;28;20369;-77
2023/07/23 11:21:49;;;;;;;18.55;10.68;;;16.40;99.90;;;;;;5106451;28;20132;-76
2023/07/23 11:24:16;;;;;;;13.90;9.95;;;16.40;99.90;;;;;;5090129;28;20101;-75
2023/07/23 11:26:41;;;;;;;14.65;9.15;;;16.40;99.90;;;;;;5102595;28;20115;-75
2023/07/23 11:29:07;;;;;;;15.93;10.32;;;16.40;99.90;;;;;;5089374;28;20268;-76
2023/07/23 11:31:37;;;;;;;15.35;9.43;;;16.50;99.90;;;;;;5102939;28;20517;-77
2023/07/23 11:34:03;;;;;;;17.63;9.50;;;16.60;99.90;;;;;;5105523;28;20473;-76
2023/07/23 11:36:29;;;;;;;15.15;9.02;;;16.60;99.90;;;;;;5106152;28;20106;-76
2023/07/23 11:38:55;;;;;;;13.45;9.93;;;16.60;99.90;;;;;;5109927;28;20512;-76
2023/07/23 11:41:36;;;;;;;15.45;10.13;;;16.70;99.90;;;;;;5107471;28;20040;-75
2023/07/23 11:44:06;;;;;;;13.80;9.43;;;16.60;99.90;;;;;;5106835;28;20055;-76
2023/07/23 11:46:36;;;;;;;19.13;9.65;;;16.60;99.90;;;;;;5107780;28;20043;-76
2023/07/23 11:49:11;;;;;;;12.90;9.45;;;16.60;99.90;;;;;;5108944;28;20040;-75
2023/07/23 11:51:38;;;;;;;17.25;9.48;;;16.60;99.90;;;;;;5107211;28;20039;-75
2023/07/23 11:54:07;;;;;;;15.70;9.65;;;16.60;99.90;;;;;;5111417;28;20059;-77
2023/07/23 11:56:40;;;;;;;15.10;8.65;;;16.70;99.90;;;;;;5114837;28;20122;-75
2023/07/23 11:59:09;;;;;;;15.68;9.57;;;16.60;99.90;;;;;;5110224;28;20036;-76
2023/07/23 12:01:37;;;;;;;13.23;8.60;;;16.60;99.90;;;;;;5112018;28;20043;-75
2023/07/23 12:04:04;;;;;;;12.95;9.15;;;16.70;99.90;;;;;;5108729;28;20085;-76
2023/07/23 12:06:35;;;;;;;15.13;9.70;;;16.60;99.90;;;;;;5117617;28;20040;-75
2023/07/23 12:09:05;;;;;;;15.48;9.50;;;16.70;99.90;;;;;;5112457;28;20054;-76
2023/07/23 12:11:32;;;;;;;15.63;9.40;;;16.60;99.90;;;;;;5109472;28;20039;-74
2023/07/23 12:14:02;;;;;;;12.95;8.80;;;16.60;99.90;;;;;;5108525;28;20072;-76
2023/07/23 12:16:39;;;;;;;16.25;8.13;;;16.60;99.90;;;;;;5106266;28;20516;-76
2023/07/23 12:19:14;;;;;;;12.75;9.75;;;16.60;99.90;;;;;;5108832;28;20092;-77
2023/07/23 12:21:42;;;;;;;14.82;9.00;;;16.70;99.90;;;;;;5108019;28;20050;-77
2023/07/23 12:24:28;;;;;;;14.13;9.10;;;16.70;99.90;;;;;;5103410;28;20039;-75
2023/07/23 12:26:58;;;;;;;11.73;7.97;;;16.70;99.90;;;;;;5103835;28;20054;-77
2023/07/23 12:29:26;;;;;;;13.07;8.52;;;16.70;99.90;;;;;;5108381;28;20043;-76
2023/07/23 12:32:12;;;;;;;12.05;8.23;;;16.80;99.90;;;;;;5104030;28;20068;-75
2023/07/23 12:34:41;;;;;;;11.02;7.53;;;16.90;99.90;;;;;;5109333;28;20519;-76